createdAt,value
2016-11-19T00:00:23.249Z,996.1
2016-11-19T00:01:33.289Z,996.11
2016-11-19T00:02:43.657Z,996.16
2016-11-19T00:03:54.023Z,996.18
2016-11-19T00:05:03.761Z,996.26
2016-11-19T00:06:13.809Z,996.26
2016-11-19T00:07:24.243Z,996.25
2016-11-19T00:08:34.279Z,996.28
2016-11-19T00:09:44.637Z,996.33
2016-11-19T00:10:54.994Z,996.36
2016-11-19T00:12:05.328Z,996.32
2016-11-19T00:13:15.673Z,996.38
2016-11-19T00:14:25.694Z,996.36
2016-11-19T00:15:35.420Z,996.32
2016-11-19T00:16:45.774Z,996.26
2016-11-19T00:17:55.794Z,996.26
2016-11-19T00:19:06.141Z,996.25
2016-11-19T00:20:16.157Z,996.33
2016-11-19T00:21:26.498Z,996.37
2016-11-19T00:22:36.816Z,996.42
2016-11-19T00:23:47.161Z,996.41
2016-11-19T00:24:57.498Z,996.37
2016-11-19T00:26:07.836Z,996.34
2016-11-19T00:27:18.154Z,996.33
2016-11-19T00:28:28.484Z,996.33
2016-11-19T00:29:38.222Z,996.4
2016-11-19T00:30:48.587Z,996.42
2016-11-19T00:31:58.972Z,996.4
2016-11-19T00:33:09.002Z,996.44
2016-11-19T00:34:19.382Z,996.43
2016-11-19T00:35:29.737Z,996.44
2016-11-19T00:36:40.077Z,996.46
2016-11-19T00:37:50.428Z,996.55
2016-11-19T00:39:00.965Z,996.56
2016-11-19T00:40:11.327Z,996.55
2016-11-19T00:41:21.713Z,996.52
2016-11-19T00:42:32.075Z,996.52
2016-11-19T00:43:42.152Z,996.56
2016-11-19T00:44:52.194Z,996.53
2016-11-19T00:46:02.551Z,996.63
2016-11-19T00:47:12.898Z,996.66
2016-11-19T00:48:23.238Z,996.65
2016-11-19T00:49:33.283Z,996.67
2016-11-19T00:50:43.362Z,996.65
2016-11-19T00:51:53.739Z,996.63
2016-11-19T00:53:03.771Z,996.64
2016-11-19T00:54:14.098Z,996.71
2016-11-19T00:55:23.505Z,996.74
2016-11-19T00:56:33.540Z,996.79
2016-11-19T00:57:43.558Z,996.85
2016-11-19T00:58:53.600Z,996.88
2016-11-19T01:00:03.957Z,996.84
2016-11-19T01:01:14.301Z,996.87
2016-11-19T01:02:24.357Z,996.84
2016-11-19T01:03:34.705Z,996.78
2016-11-19T01:04:44.744Z,996.69
2016-11-19T01:05:55.081Z,996.63
2016-11-19T01:07:05.453Z,996.57
2016-11-19T01:08:15.853Z,996.54
2016-11-19T01:09:26.504Z,996.56
2016-11-19T01:10:36.862Z,996.59
2016-11-19T01:11:46.960Z,996.6
2016-11-19T01:12:56.986Z,996.65
2016-11-19T01:14:07.355Z,996.66
2016-11-19T01:15:17.749Z,996.62
2016-11-19T01:16:28.092Z,996.6
2016-11-19T01:17:38.462Z,996.58
2016-11-19T01:18:48.822Z,996.53
2016-11-19T01:19:58.876Z,996.52
2016-11-19T01:21:09.234Z,996.54
2016-11-19T01:22:19.255Z,996.5
2016-11-19T01:23:29.602Z,996.55
2016-11-19T01:24:39.936Z,996.57
2016-11-19T01:25:49.970Z,996.6
2016-11-19T01:27:00.337Z,996.58
2016-11-19T01:28:10.676Z,996.55
2016-11-19T01:29:21.004Z,996.54
2016-11-19T01:30:31.346Z,996.49
2016-11-19T01:31:41.369Z,996.52
2016-11-19T01:32:51.713Z,996.54
2016-11-19T01:34:02.033Z,996.62
2016-11-19T01:35:12.423Z,996.6
2016-11-19T01:36:22.761Z,996.63
2016-11-19T01:37:32.478Z,996.66
2016-11-19T01:38:42.824Z,996.65
2016-11-19T01:39:52.851Z,996.58
2016-11-19T01:41:03.208Z,996.56
2016-11-19T01:42:13.541Z,996.51
2016-11-19T01:43:23.597Z,996.48
2016-11-19T01:44:33.922Z,996.36
2016-11-19T01:45:44.265Z,996.37
2016-11-19T01:46:54.596Z,996.4
2016-11-19T01:48:04.328Z,996.35
2016-11-19T01:49:14.664Z,996.3
2016-11-19T01:50:24.686Z,996.26
2016-11-19T01:51:35.018Z,996.26
2016-11-19T01:52:45.335Z,996.23
2016-11-19T01:53:55.370Z,996.18
2016-11-19T01:55:05.393Z,996.2
2016-11-19T01:56:15.417Z,996.23
2016-11-19T01:57:25.735Z,996.27
2016-11-19T01:58:36.119Z,996.24
2016-11-19T01:59:46.454Z,996.24
2016-11-19T02:00:56.792Z,996.23
2016-11-19T02:02:07.164Z,996.25
2016-11-19T02:03:17.519Z,996.26
2016-11-19T02:04:27.851Z,996.29
2016-11-19T02:05:37.870Z,996.22
2016-11-19T02:06:48.204Z,996.24
2016-11-19T02:07:58.537Z,996.2
2016-11-19T02:09:08.885Z,996.27
2016-11-19T02:10:19.271Z,996.28
2016-11-19T02:11:29.336Z,996.23
2016-11-19T02:12:39.352Z,996.16
2016-11-19T02:13:49.394Z,996.13
2016-11-19T02:14:59.728Z,996.18
2016-11-19T02:16:10.092Z,996.19
2016-11-19T02:17:20.111Z,996.2
2016-11-19T02:18:30.481Z,996.25
2016-11-19T02:19:40.813Z,996.21
2016-11-19T02:20:50.529Z,996.15
2016-11-19T02:22:00.866Z,996.17
2016-11-19T02:23:11.256Z,996.15
2016-11-19T02:24:21.584Z,996.18
2016-11-19T02:25:31.902Z,996.09
2016-11-19T02:26:41.957Z,996.14
2016-11-19T02:27:52.301Z,996.12
2016-11-19T02:29:02.336Z,996.12
2016-11-19T02:30:12.666Z,996.2
2016-11-19T02:31:22.994Z,996.21
2016-11-19T02:32:33.367Z,996.3
2016-11-19T02:33:43.690Z,996.33
2016-11-19T02:34:54.021Z,996.29
2016-11-19T02:36:04.353Z,996.32
2016-11-19T02:37:14.685Z,996.24
2016-11-19T02:38:24.711Z,996.2
2016-11-19T02:39:34.414Z,996.24
2016-11-19T02:40:44.439Z,996.31
2016-11-19T02:41:54.786Z,996.33
2016-11-19T02:43:05.137Z,996.36
2016-11-19T02:44:15.159Z,996.36
2016-11-19T02:45:25.507Z,996.44
2016-11-19T02:46:35.873Z,996.45
2016-11-19T02:47:46.209Z,996.42
2016-11-19T02:48:56.535Z,996.41
2016-11-19T02:50:06.870Z,996.39
2016-11-19T02:51:16.884Z,996.38
2016-11-19T02:52:26.903Z,996.4
2016-11-19T02:53:37.239Z,996.4
2016-11-19T02:54:47.839Z,996.37
2016-11-19T02:55:58.169Z,996.36
2016-11-19T02:57:08.494Z,996.33
2016-11-19T02:58:18.511Z,996.35
2016-11-19T02:59:28.827Z,996.29
2016-11-19T03:00:38.864Z,996.3
2016-11-19T03:32:18.064Z,995.89
2016-11-19T03:33:28.093Z,995.89
2016-11-19T03:34:38.098Z,995.97
2016-11-19T03:35:48.109Z,995.97
2016-11-19T03:36:58.461Z,995.92
2016-11-19T03:38:08.789Z,995.82
2016-11-19T03:39:19.115Z,995.76
2016-11-19T03:40:29.429Z,995.8
2016-11-19T03:41:39.763Z,995.79
2016-11-19T03:42:50.091Z,995.72
2016-11-19T03:44:00.426Z,995.7
2016-11-19T03:45:10.784Z,995.66
2016-11-19T03:46:20.804Z,995.65
2016-11-19T03:47:30.516Z,995.56
2016-11-19T03:48:40.233Z,995.51
2016-11-19T03:49:50.244Z,995.47
2016-11-19T03:51:00.317Z,995.47
2016-11-19T03:52:10.653Z,995.53
2016-11-19T03:53:21.005Z,995.53
2016-11-19T03:54:31.337Z,995.57
2016-11-19T03:55:41.408Z,995.63
2016-11-19T03:56:51.124Z,995.58
2016-11-19T03:58:01.151Z,995.49
2016-11-19T03:59:11.476Z,995.39
2016-11-19T04:00:21.830Z,995.33
2016-11-19T04:01:32.166Z,995.37
2016-11-19T04:02:42.494Z,995.45
2016-11-19T04:03:52.519Z,995.47
2016-11-19T04:05:02.861Z,995.55
2016-11-19T04:06:12.878Z,995.57
2016-11-19T04:07:23.221Z,995.58
2016-11-19T04:08:33.547Z,995.61
2016-11-19T04:09:43.864Z,995.63
2016-11-19T04:10:54.201Z,995.65
2016-11-19T04:12:04.237Z,995.57
2016-11-19T04:13:14.620Z,995.51
2016-11-19T04:14:24.640Z,995.47
2016-11-19T04:15:34.659Z,995.49
2016-11-19T04:16:44.991Z,995.49
2016-11-19T04:17:55.341Z,995.44
2016-11-19T04:19:05.679Z,995.44
2016-11-19T04:20:15.695Z,995.44
2016-11-19T04:21:25.705Z,995.43
2016-11-19T04:22:36.052Z,995.5
2016-11-19T04:23:46.065Z,995.53
2016-11-19T04:24:56.077Z,995.62
2016-11-19T04:26:06.097Z,995.68
2016-11-19T04:27:16.419Z,995.65
2016-11-19T04:28:26.739Z,995.63
2016-11-19T04:29:36.768Z,995.58
2016-11-19T04:30:46.818Z,995.61
2016-11-19T04:31:57.152Z,995.61
2016-11-19T11:47:30.084Z,990.33
2016-11-19T11:48:40.119Z,990.35
2016-11-19T11:49:50.491Z,990.29
2016-11-19T11:51:00.946Z,990.32
2016-11-19T11:52:10.994Z,990.32
2016-11-19T11:53:21.028Z,990.31
2016-11-19T11:54:31.399Z,990.37
2016-11-19T11:55:41.126Z,990.39
2016-11-19T11:56:51.465Z,990.34
2016-11-19T11:58:01.507Z,990.33
2016-11-19T11:59:11.875Z,990.34
2016-11-19T12:00:21.902Z,990.34
2016-11-19T12:01:31.628Z,990.36
2016-11-19T12:02:41.675Z,990.35
2016-11-19T12:03:52.035Z,990.25
2016-11-19T12:05:02.093Z,990.17
2016-11-19T12:06:12.115Z,990.16
2016-11-19T12:07:22.449Z,990.13
2016-11-19T12:08:32.488Z,990.16
2016-11-19T12:09:42.509Z,990.15
2016-11-19T12:10:52.850Z,990.16
2016-11-19T12:12:02.880Z,990.14
2016-11-19T12:13:13.229Z,990.11
2016-11-19T12:14:23.611Z,990.16
2016-11-19T12:15:33.645Z,990.18
2016-11-19T12:16:43.668Z,990.14
2016-11-19T12:17:54.058Z,990.15
2016-11-19T12:19:04.395Z,990.12
2016-11-19T12:20:14.725Z,990.11
2016-11-19T12:21:25.072Z,990.07
2016-11-19T12:22:35.419Z,990.11
2016-11-19T12:23:45.478Z,990.15
2016-11-19T12:24:55.856Z,990.09
2016-11-19T12:26:06.193Z,990.12
2016-11-19T12:27:15.601Z,990.07
2016-11-19T12:28:25.633Z,990.07
2016-11-19T12:29:35.979Z,989.98
2016-11-19T12:30:46.335Z,989.99
2016-11-19T12:31:56.669Z,989.94
2016-11-19T12:33:07.016Z,989.97
2016-11-19T12:34:17.366Z,989.97
2016-11-19T12:35:27.717Z,989.92
2016-11-19T12:36:37.460Z,989.9
2016-11-19T12:37:47.805Z,989.84
2016-11-19T12:38:57.848Z,989.89
2016-11-19T12:40:08.204Z,989.91
2016-11-19T12:41:18.222Z,989.94
2016-11-19T12:42:28.568Z,989.99
2016-11-19T12:43:38.959Z,989.96
2016-11-19T12:44:49.317Z,989.99
2016-11-19T12:45:59.651Z,989.93
2016-11-19T12:47:09.679Z,989.94
2016-11-19T12:48:19.396Z,989.95
2016-11-19T12:49:29.735Z,990
2016-11-19T12:50:40.074Z,989.98
2016-11-19T12:51:50.646Z,990.04
2016-11-19T12:53:00.983Z,989.93
2016-11-19T12:54:11.322Z,989.94
2016-11-19T12:55:21.666Z,989.86
2016-11-19T12:56:31.397Z,989.81
2016-11-19T12:57:41.433Z,989.82
2016-11-19T12:58:51.777Z,989.84
2016-11-19T13:00:02.136Z,989.89
2016-11-19T13:01:12.500Z,989.9
2016-11-19T13:02:22.860Z,989.89
2016-11-19T13:03:33.206Z,989.96
2016-11-19T13:04:43.544Z,989.91
2016-11-19T13:05:53.887Z,989.95
2016-11-19T13:07:03.925Z,989.94
2016-11-19T13:08:14.283Z,990
2016-11-19T13:09:24.625Z,989.93
2016-11-19T13:10:34.973Z,989.95
2016-11-19T13:11:45.329Z,989.94
2016-11-19T13:12:55.676Z,989.8
2016-11-19T13:14:05.712Z,989.81
2016-11-19T13:15:16.090Z,989.8
2016-11-19T13:16:26.445Z,989.8
2016-11-19T13:17:36.176Z,989.78
2016-11-19T13:18:46.227Z,989.84
2016-11-19T13:19:56.566Z,989.84
2016-11-19T13:21:06.913Z,989.76
2016-11-19T13:22:17.253Z,989.83
2016-11-19T13:23:27.285Z,989.78
2016-11-19T13:24:37.638Z,989.75
2016-11-19T13:25:48.016Z,989.73
2016-11-19T13:26:58.075Z,989.8
2016-11-19T13:28:08.419Z,989.84
2016-11-19T13:29:18.446Z,989.81
2016-11-19T13:30:28.796Z,989.78
2016-11-19T13:31:39.142Z,989.75
2016-11-19T13:32:49.169Z,989.77
2016-11-19T13:33:59.515Z,989.75
2016-11-19T13:35:09.854Z,989.75
2016-11-19T13:36:20.215Z,989.71
2016-11-19T13:37:30.263Z,989.68
2016-11-19T13:38:40.600Z,989.72
2016-11-19T13:39:50.955Z,989.71
2016-11-19T13:41:01.303Z,989.73
2016-11-19T13:42:11.028Z,989.77
2016-11-19T13:43:21.362Z,989.69
2016-11-19T13:44:31.088Z,989.73
2016-11-19T13:45:41.124Z,989.73
2016-11-19T13:46:51.139Z,989.63
2016-11-19T13:48:00.849Z,989.52
2016-11-19T13:49:10.260Z,989.33
2016-11-19T13:50:20.292Z,989.23
2016-11-19T13:51:30.642Z,989.25
2016-11-19T13:52:41.004Z,989.25
2016-11-19T13:53:51.351Z,989.19
2016-11-19T13:55:01.711Z,989.28
2016-11-19T13:56:12.062Z,989.23
2016-11-19T13:57:22.396Z,989.22
2016-11-19T13:58:32.755Z,989.2
2016-11-19T13:59:43.124Z,989.14
2016-11-19T14:00:53.388Z,989.12
2016-11-19T14:02:03.745Z,989.12
2016-11-19T14:03:14.075Z,989.11
2016-11-19T14:04:23.800Z,989.13
2016-11-19T14:05:34.137Z,989.06
2016-11-19T14:06:44.501Z,989.12
2016-11-19T14:07:54.537Z,989.09
2016-11-19T14:09:04.899Z,989.1
2016-11-19T14:10:14.963Z,989.12
2016-11-19T14:11:25.308Z,989.07
2016-11-19T14:12:35.651Z,989.04
2016-11-19T14:13:45.686Z,989.06
2016-11-19T14:14:55.713Z,989.05
2016-11-19T14:16:05.127Z,988.94
2016-11-19T14:17:15.498Z,988.9
2016-11-19T14:18:25.519Z,988.72
2016-11-19T14:19:35.873Z,988.72
2016-11-19T14:20:46.196Z,988.74
2016-11-19T14:21:56.238Z,988.8
2016-11-19T14:23:06.594Z,988.86
2016-11-19T14:24:16.622Z,988.87
2016-11-19T14:25:26.958Z,988.9
2016-11-19T14:26:36.998Z,988.89
2016-11-19T14:27:47.350Z,988.86
2016-11-19T14:28:57.382Z,988.84
2016-11-19T14:30:07.404Z,988.91
2016-11-19T14:31:17.442Z,988.84
2016-11-19T14:32:27.781Z,988.92
2016-11-19T14:33:37.518Z,988.92
2016-11-19T14:34:47.856Z,988.88
2016-11-19T14:35:58.196Z,988.83
2016-11-19T14:37:08.666Z,988.88
2016-11-19T14:38:19.019Z,988.8
2016-11-19T14:39:29.055Z,988.91
2016-11-19T14:40:39.388Z,988.99
2016-11-19T14:41:49.531Z,989.11
2016-11-19T14:42:59.925Z,989.23
2016-11-19T14:44:09.967Z,989.25
2016-11-19T14:45:20.353Z,989.29
2016-11-19T14:46:30.742Z,989.31
2016-11-19T14:47:41.097Z,989.35
2016-11-19T14:48:51.576Z,989.35
2016-11-19T14:50:01.772Z,989.31
2016-11-19T14:51:12.209Z,989.23
2016-11-19T14:52:22.600Z,989.31
2016-11-19T14:53:32.954Z,989.32
2016-11-19T14:54:43.072Z,989.35
2016-11-19T14:55:53.167Z,989.44
2016-11-19T14:57:03.522Z,989.38
2016-11-19T14:58:14.178Z,989.44
2016-11-19T14:59:24.259Z,989.46
2016-11-19T15:00:34.420Z,989.45
2016-11-19T15:01:44.779Z,989.54
2016-11-19T15:02:54.876Z,989.53
2016-11-19T15:04:04.995Z,989.6
2016-11-19T15:05:15.376Z,989.65
2016-11-19T15:06:25.806Z,989.67
2016-11-19T15:07:35.877Z,989.7
2016-11-19T15:08:45.933Z,989.73
2016-11-19T15:09:55.643Z,989.77
2016-11-19T15:11:05.964Z,989.77
2016-11-19T15:12:16.349Z,989.79
2016-11-19T15:13:26.753Z,989.82
2016-11-19T15:14:37.104Z,989.83
2016-11-19T15:15:47.460Z,989.91
2016-11-19T15:16:57.833Z,989.9
2016-11-19T15:18:07.870Z,989.96
2016-11-19T15:19:17.922Z,990.04
2016-11-19T15:20:28.293Z,990.13
2016-11-19T15:21:38.671Z,990.26
2016-11-19T15:22:49.027Z,990.34
2016-11-19T15:23:59.383Z,990.44
2016-11-19T15:25:09.454Z,990.53
2016-11-19T15:26:19.802Z,990.62
2016-11-19T15:27:30.170Z,990.68
2016-11-19T15:28:40.585Z,990.72
2016-11-19T15:29:50.682Z,990.79
2016-11-19T15:31:01.064Z,990.82
2016-11-19T15:32:11.515Z,990.9
2016-11-19T15:33:21.864Z,991.07
2016-11-19T15:34:32.261Z,991.13
2016-11-19T15:35:42.618Z,991.17
2016-11-19T15:36:52.691Z,991.12
2016-11-19T15:38:03.030Z,991.08
2016-11-19T15:39:13.723Z,991.11
2016-11-19T15:40:24.064Z,991.18
2016-11-19T15:41:34.466Z,991.17
2016-11-19T15:42:44.811Z,991.24
2016-11-19T15:43:54.842Z,991.2
2016-11-19T15:45:04.883Z,991.35
2016-11-19T15:46:15.239Z,991.32
2016-11-19T15:47:25.621Z,991.41
2016-11-19T15:48:35.971Z,991.51
2016-11-19T15:49:46.237Z,991.61
2016-11-19T15:50:56.615Z,991.57
2016-11-19T15:52:06.770Z,991.57
2016-11-19T15:53:17.150Z,991.6
2016-11-19T15:54:27.581Z,991.61
2016-11-19T15:55:37.961Z,991.72
2016-11-19T15:56:48.327Z,991.77
2016-11-19T15:57:58.696Z,991.82
2016-11-19T15:59:09.118Z,991.82
2016-11-19T16:00:19.192Z,991.88
2016-11-19T16:01:29.572Z,991.89
2016-11-19T16:02:39.957Z,991.97
2016-11-19T16:03:50.330Z,991.96
2016-11-19T16:05:00.801Z,992.04
2016-11-19T16:06:11.165Z,992.03
2016-11-19T16:07:21.588Z,991.98
2016-11-19T16:08:31.977Z,991.94
2016-11-19T16:09:42.349Z,991.94
2016-11-19T16:10:52.411Z,991.89
2016-11-19T16:12:02.831Z,991.9
2016-11-19T16:13:13.247Z,991.91
2016-11-19T16:14:23.676Z,991.89
2016-11-19T16:15:34.113Z,991.88
2016-11-19T16:16:44.495Z,991.86
2016-11-19T16:17:54.891Z,991.88
2016-11-19T16:19:04.999Z,991.93
2016-11-19T16:20:15.420Z,991.94
2016-11-19T16:21:25.803Z,991.86
2016-11-19T16:22:36.196Z,991.85
2016-11-19T16:23:46.772Z,991.95
2016-11-19T16:24:57.131Z,991.97
2016-11-19T16:26:07.500Z,992.03
2016-11-19T16:27:17.896Z,992.16
2016-11-19T16:28:27.638Z,992.25
2016-11-19T16:29:37.996Z,992.37
2016-11-19T16:30:48.331Z,992.47
2016-11-19T16:31:58.691Z,992.48
2016-11-19T16:33:09.121Z,992.45
2016-11-19T16:34:19.517Z,992.43
2016-11-19T16:35:29.575Z,992.49
2016-11-19T16:36:39.617Z,992.55
2016-11-19T16:37:50.076Z,992.58
2016-11-19T16:39:00.179Z,992.62
2016-11-19T16:40:10.537Z,992.59
2016-11-19T16:41:20.958Z,992.63
2016-11-19T16:42:31.323Z,992.64
2016-11-19T16:43:41.666Z,992.63
2016-11-19T16:44:52.031Z,992.65
2016-11-19T16:46:02.428Z,992.67
2016-11-19T16:47:12.781Z,992.67
2016-11-19T16:48:22.847Z,992.72
2016-11-19T16:49:33.183Z,992.75
2016-11-19T16:50:43.205Z,992.78
2016-11-19T16:51:53.636Z,992.91
2016-11-19T16:53:03.973Z,993.03
2016-11-19T16:54:14.047Z,992.97
2016-11-19T16:55:24.407Z,992.96
2016-11-19T16:56:34.755Z,993.08
2016-11-19T16:57:45.100Z,993.07
2016-11-19T16:58:55.430Z,992.99
2016-11-19T17:00:05.482Z,993.16
2016-11-19T17:01:15.863Z,993.29
2016-11-19T17:02:26.223Z,993.43
2016-11-19T17:03:36.677Z,993.52
2016-11-19T17:04:46.728Z,993.55
2016-11-19T17:05:57.085Z,993.61
2016-11-19T17:07:07.450Z,993.57
2016-11-19T17:08:17.808Z,993.6
2016-11-19T17:09:28.156Z,993.6
2016-11-19T17:10:38.531Z,993.58
2016-11-19T17:11:48.906Z,993.53
2016-11-19T17:12:58.986Z,993.55
2016-11-19T17:14:09.344Z,993.5
2016-11-19T17:15:19.684Z,993.44
2016-11-19T17:16:29.728Z,993.5
2016-11-19T17:17:40.071Z,993.52
2016-11-19T17:18:50.416Z,993.55
2016-11-19T17:20:00.157Z,993.54
2016-11-19T17:21:10.425Z,993.52
2016-11-19T17:22:20.461Z,993.58
2016-11-19T17:23:30.528Z,993.58
2016-11-19T17:24:40.875Z,993.68
2016-11-19T17:25:50.633Z,993.68
2016-11-19T17:27:00.986Z,993.72
2016-11-19T17:28:11.343Z,993.71
2016-11-19T17:29:21.683Z,993.71
2016-11-19T17:30:31.719Z,993.66
2016-11-19T17:31:42.056Z,993.74
2016-11-19T17:32:52.407Z,993.82
2016-11-19T17:34:02.806Z,993.66
2016-11-19T17:35:13.165Z,993.77
2016-11-19T17:36:23.525Z,993.69
2016-11-19T17:37:33.901Z,993.79
2016-11-19T17:38:44.260Z,993.78
2016-11-19T17:39:54.621Z,993.72
2016-11-19T17:41:04.681Z,993.68
2016-11-19T17:42:14.718Z,993.73
2016-11-19T17:43:24.753Z,993.83
2016-11-19T17:44:35.104Z,993.82
2016-11-19T17:45:45.474Z,993.76
2016-11-19T17:46:55.839Z,993.92
2016-11-19T17:48:05.880Z,993.9
2016-11-19T17:49:16.238Z,993.94
2016-11-19T17:50:26.609Z,993.99
2016-11-19T17:51:36.958Z,994
2016-11-19T17:52:47.343Z,993.99
2016-11-19T17:53:57.696Z,994.12
2016-11-19T17:55:08.075Z,994.03
2016-11-19T17:56:18.406Z,994.1
2016-11-19T17:57:28.746Z,994.21
2016-11-19T17:58:38.990Z,994.23
2016-11-19T17:59:49.009Z,994.31
2016-11-19T18:00:59.396Z,994.25
2016-11-19T18:02:09.444Z,994.42
2016-11-19T18:03:19.482Z,994.44
2016-11-19T18:04:29.837Z,994.64
2016-11-19T18:05:39.880Z,994.63
2016-11-19T18:06:50.225Z,994.55
2016-11-19T18:08:00.542Z,994.42
2016-11-19T18:09:10.904Z,994.52
2016-11-19T18:10:20.928Z,994.51
2016-11-19T18:11:31.297Z,994.57
2016-11-19T18:12:41.669Z,994.57
2016-11-19T18:13:52.031Z,994.65
2016-11-19T18:15:02.403Z,994.73
2016-11-19T18:16:12.159Z,994.79
2016-11-19T18:17:21.886Z,994.83
2016-11-19T18:18:32.248Z,994.96
2016-11-19T18:19:42.535Z,994.94
2016-11-19T18:20:52.882Z,994.96
2016-11-19T18:22:03.251Z,994.92
2016-11-19T18:23:13.621Z,994.94
2016-11-19T18:24:23.675Z,994.98
2016-11-19T18:25:34.041Z,995.03
2016-11-19T18:26:44.413Z,995.09
2016-11-19T18:27:54.448Z,995.08
2016-11-19T18:29:04.813Z,995.23
2016-11-19T18:30:15.185Z,995.16
2016-11-19T18:31:25.234Z,995.26
2016-11-19T18:32:35.614Z,995.21
2016-11-19T18:33:45.692Z,995.25
2016-11-19T18:34:55.745Z,995.34
2016-11-19T18:36:06.094Z,995.34
2016-11-19T18:37:16.436Z,995.31
2016-11-19T18:38:26.814Z,995.29
2016-11-19T18:39:37.187Z,995.33
2016-11-19T18:40:46.945Z,995.24
2016-11-19T18:41:56.984Z,995.21
2016-11-19T18:43:07.337Z,995.23
2016-11-19T18:44:17.370Z,995.29
2016-11-19T18:45:27.783Z,995.3
2016-11-19T18:46:38.157Z,995.35
2016-11-19T18:47:48.570Z,995.51
2016-11-19T18:48:58.929Z,995.49
2016-11-19T18:50:08.655Z,995.54
2016-11-19T18:51:19.010Z,995.55
2016-11-19T18:52:29.365Z,995.56
2016-11-19T18:53:39.733Z,995.63
2016-11-19T18:54:50.077Z,995.59
2016-11-19T18:56:00.459Z,995.58
2016-11-19T18:57:10.200Z,995.61
2016-11-19T18:58:20.567Z,995.6
2016-11-19T18:59:30.623Z,995.73
2016-11-19T19:00:40.977Z,995.64
2016-11-19T19:01:51.015Z,995.68
2016-11-19T19:03:01.055Z,995.7
2016-11-19T19:04:11.438Z,995.79
2016-11-19T19:05:21.817Z,995.89
2016-11-19T19:06:32.166Z,995.87
2016-11-19T19:07:42.208Z,995.91
2016-11-19T19:08:52.278Z,995.88
2016-11-19T19:10:02.634Z,995.85
2016-11-19T19:11:12.979Z,995.83
2016-11-19T19:12:23.004Z,995.85
2016-11-19T19:13:33.377Z,995.86
2016-11-19T19:14:43.749Z,995.95
2016-11-19T19:15:54.115Z,996.02
2016-11-19T19:17:04.531Z,995.97
2016-11-19T19:18:14.931Z,995.99
2016-11-19T19:19:25.299Z,995.98
2016-11-19T19:20:35.664Z,995.99
2016-11-19T19:21:45.475Z,996.01
2016-11-19T19:22:55.918Z,996.1
2016-11-19T19:24:06.297Z,996.12
2016-11-19T19:25:16.717Z,996.05
2016-11-19T19:26:26.758Z,996.1
2016-11-19T19:27:37.147Z,996.21
2016-11-19T19:28:47.546Z,996.29
2016-11-19T19:29:57.913Z,996.29
2016-11-19T19:31:08.335Z,996.46
2016-11-19T19:32:18.718Z,996.41
2016-11-19T19:33:29.112Z,996.48
2016-11-19T19:34:39.194Z,996.58
2016-11-19T19:35:49.305Z,996.66
2016-11-19T19:36:59.761Z,996.45
2016-11-19T19:38:09.903Z,996.39
2016-11-19T19:39:20.325Z,996.59
2016-11-19T19:40:30.688Z,996.61
2016-11-19T19:41:41.156Z,996.52
2016-11-19T19:42:51.591Z,996.59
2016-11-19T19:44:02.072Z,996.59
2016-11-19T19:45:12.450Z,996.64
2016-11-19T19:46:22.831Z,996.83
2016-11-19T19:47:32.964Z,996.69
2016-11-19T19:48:43.435Z,996.75
2016-11-19T19:49:53.789Z,996.85
2016-11-19T19:51:03.833Z,996.88
2016-11-19T19:52:14.199Z,996.99
2016-11-19T19:53:24.607Z,996.94
2016-11-19T19:54:34.785Z,996.96
2016-11-19T19:55:45.329Z,997
2016-11-19T19:56:55.053Z,997.06
2016-11-19T19:58:05.089Z,997.07
2016-11-19T19:59:15.458Z,997.05
2016-11-19T20:00:26.085Z,997.16
2016-11-19T20:01:36.675Z,997.21
2016-11-19T20:02:47.422Z,997.21
2016-11-19T20:03:59.890Z,997.23
2016-11-19T20:05:10.209Z,997.3
2016-11-19T20:06:20.745Z,997.41
2016-11-19T20:07:31.553Z,997.31
2016-11-19T20:08:41.739Z,997.46
2016-11-19T20:09:52.354Z,997.45
2016-11-19T20:11:02.635Z,997.52
2016-11-19T20:12:13.233Z,997.6
2016-11-19T20:13:23.687Z,997.59
2016-11-19T20:14:34.045Z,997.68
2016-11-19T20:15:44.568Z,997.78
2016-11-19T20:16:54.504Z,997.84
2016-11-19T20:18:04.766Z,997.84
2016-11-19T20:19:15.392Z,997.81
2016-11-19T20:20:25.928Z,997.8
2016-11-19T20:21:36.292Z,997.86
2016-11-19T20:22:46.633Z,997.78
2016-11-19T20:23:56.869Z,997.82
2016-11-19T20:25:07.638Z,997.77
2016-11-19T20:26:18.639Z,997.73
2016-11-19T20:27:29.398Z,997.92
2016-11-19T20:28:39.976Z,997.85
2016-11-19T20:29:49.987Z,997.78
2016-11-19T20:31:00.246Z,997.77
2016-11-19T20:32:10.502Z,997.77
2016-11-19T20:33:21.136Z,997.78
2016-11-19T20:34:31.754Z,997.83
2016-11-19T20:35:42.625Z,997.82
2016-11-19T20:36:53.543Z,997.8
2016-11-19T20:38:04.173Z,997.83
2016-11-19T20:39:14.839Z,997.79
2016-11-19T20:40:25.405Z,997.74
2016-11-19T20:41:36.030Z,997.76
2016-11-19T20:42:46.476Z,997.77
2016-11-19T20:43:56.638Z,997.67
2016-11-19T20:45:07.520Z,997.66
2016-11-19T20:46:18.286Z,997.74
2016-11-19T20:47:28.793Z,997.69
2016-11-19T20:48:39.520Z,997.7
2016-11-19T20:49:49.931Z,997.64
2016-11-19T20:51:00.567Z,997.7
2016-11-19T20:52:11.380Z,997.61
2016-11-19T20:53:21.946Z,997.68
2016-11-19T20:54:32.540Z,997.61
2016-11-19T20:55:43.342Z,997.6
2016-11-19T20:56:53.730Z,997.57
2016-11-19T20:58:04.331Z,997.54
2016-11-19T20:59:15.001Z,997.6
2016-11-19T21:00:25.634Z,997.64
2016-11-19T21:01:36.247Z,997.65
2016-11-19T21:02:46.631Z,997.76
2016-11-19T21:03:57.077Z,997.82
2016-11-19T21:05:07.417Z,997.87
2016-11-19T21:06:17.684Z,997.84
2016-11-19T21:07:28.230Z,997.96
2016-11-19T21:08:39.128Z,997.99
2016-11-19T21:09:49.692Z,998.03
2016-11-19T21:11:00.266Z,998.04
2016-11-19T21:12:10.804Z,998.09
2016-11-19T21:13:21.440Z,998.07
2016-11-19T21:14:32.074Z,998.08
2016-11-19T21:15:42.453Z,998.03
2016-11-19T21:16:52.651Z,998.09
2016-11-19T21:18:03.135Z,998.04
2016-11-19T21:19:13.614Z,998.04
2016-11-19T21:20:24.274Z,998.09
2016-11-19T21:21:34.384Z,998.09
2016-11-19T21:22:44.975Z,998.14
2016-11-19T21:23:54.870Z,998.21
2016-11-19T21:25:05.434Z,998.24
2016-11-19T21:26:16.038Z,998.23
2016-11-19T21:27:26.125Z,998.24
2016-11-19T21:28:36.625Z,998.17
2016-11-19T21:29:47.079Z,998.23
2016-11-19T21:30:57.492Z,998.25
2016-11-19T21:32:07.933Z,998.29
2016-11-19T21:33:18.086Z,998.29
2016-11-19T21:34:28.506Z,998.25
2016-11-19T21:35:38.779Z,998.24
2016-11-19T21:36:49.225Z,998.19
2016-11-19T21:37:59.612Z,998.1
2016-11-19T21:39:09.364Z,998.02
2016-11-19T21:40:20.112Z,997.96
2016-11-19T21:41:30.560Z,997.91
2016-11-19T21:42:40.648Z,997.9
2016-11-19T21:43:51.072Z,997.93
2016-11-19T21:45:01.644Z,997.96
2016-11-19T21:46:12.499Z,997.99
2016-11-19T21:47:22.576Z,998.02
2016-11-19T21:48:32.956Z,997.97
2016-11-19T21:49:43.332Z,997.98
2016-11-19T21:50:53.709Z,998.03
2016-11-19T21:52:03.790Z,998.02
2016-11-19T21:53:14.176Z,998.06
2016-11-19T21:54:24.676Z,998.07
2016-11-19T21:55:35.049Z,998.08
2016-11-19T21:56:45.415Z,998.05
2016-11-19T21:57:55.467Z,998.06
2016-11-19T21:59:05.832Z,998.08
2016-11-19T22:00:15.870Z,998.07
2016-11-19T22:01:25.914Z,998.08
2016-11-19T22:02:36.341Z,998.02
2016-11-19T22:03:46.729Z,997.98
2016-11-19T22:04:57.072Z,997.99
2016-11-19T22:06:07.167Z,997.99
2016-11-19T22:07:17.530Z,998.02
2016-11-19T22:08:27.572Z,998.09
2016-11-19T22:09:37.950Z,998.14
2016-11-19T22:10:48.034Z,998.16
2016-11-19T22:11:58.016Z,998.22
2016-11-19T22:13:08.427Z,998.22
2016-11-19T22:14:18.818Z,998.22
2016-11-19T22:15:29.190Z,998.26
2016-11-19T22:16:39.558Z,998.26
2016-11-19T22:17:49.931Z,998.24
2016-11-19T22:19:00.002Z,998.22
2016-11-19T22:20:10.399Z,998.24
2016-11-19T22:21:20.809Z,998.27
2016-11-19T22:22:31.180Z,998.24
2016-11-19T22:23:41.227Z,998.22